sensor_id;sensor_type;location;lat;lon;timestamp;pressure;altitude;pressure_sealevel;temperature;humidity
85105;BME280;75457;53.198;45.008;2024-03-02T00:00:15;101523.78;;;1.16;48.24
85105;BME280;75457;53.198;45.008;2024-03-02T00:02:42;101526.03;;;1.06;49.18
85105;BME280;75457;53.198;45.008;2024-03-02T00:05:08;101527.81;;;1.02;49.21
85105;BME280;75457;53.198;45.008;2024-03-02T00:07:36;101534.50;;;1.04;48.79
85105;BME280;75457;53.198;45.008;2024-03-02T00:10:07;101531.75;;;1.13;48.72
85105;BME280;75457;53.198;45.008;2024-03-02T00:12:33;101529.81;;;1.30;48.28
85105;BME280;75457;53.198;45.008;2024-03-02T00:14:59;101526.25;;;1.38;48.15
85105;BME280;75457;53.198;45.008;2024-03-02T00:17:24;101529.81;;;1.30;47.83
85105;BME280;75457;53.198;45.008;2024-03-02T00:19:51;101526.63;;;1.28;47.99
85105;BME280;75457;53.198;45.008;2024-03-02T00:22:17;101525.19;;;1.31;47.89
85105;BME280;75457;53.198;45.008;2024-03-02T00:24:42;101522.97;;;1.24;47.92
85105;BME280;75457;53.198;45.008;2024-03-02T00:27:08;101524.72;;;1.20;47.81
85105;BME280;75457;53.198;45.008;2024-03-02T00:29:38;101528.69;;;1.31;47.94
85105;BME280;75457;53.198;45.008;2024-03-02T00:32:11;101518.63;;;1.32;47.95
85105;BME280;75457;53.198;45.008;2024-03-02T00:34:37;101518.78;;;1.35;47.54
85105;BME280;75457;53.198;45.008;2024-03-02T00:37:04;101518.66;;;1.23;48.00
85105;BME280;75457;53.198;45.008;2024-03-02T00:39:30;101524.44;;;1.05;47.91
85105;BME280;75457;53.198;45.008;2024-03-02T00:41:55;101526.53;;;0.99;47.83
85105;BME280;75457;53.198;45.008;2024-03-02T00:44:21;101522.56;;;0.97;47.89
85105;BME280;75457;53.198;45.008;2024-03-02T00:46:50;101527.84;;;0.93;48.39
85105;BME280;75457;53.198;45.008;2024-03-02T00:49:18;101525.09;;;1.02;47.66
85105;BME280;75457;53.198;45.008;2024-03-02T00:51:47;101534.19;;;0.89;48.20
85105;BME280;75457;53.198;45.008;2024-03-02T00:54:15;101529.13;;;0.87;48.46
85105;BME280;75457;53.198;45.008;2024-03-02T00:56:41;101522.72;;;0.83;48.05
85105;BME280;75457;53.198;45.008;2024-03-02T00:59:07;101532.91;;;0.95;48.12
85105;BME280;75457;53.198;45.008;2024-03-02T01:01:32;101529.09;;;1.04;48.43
85105;BME280;75457;53.198;45.008;2024-03-02T01:03:58;101543.91;;;1.07;47.51
85105;BME280;75457;53.198;45.008;2024-03-02T01:06:23;101537.53;;;1.03;47.39
85105;BME280;75457;53.198;45.008;2024-03-02T01:08:49;101534.69;;;0.99;47.36
85105;BME280;75457;53.198;45.008;2024-03-02T01:11:16;101536.91;;;0.97;47.75
85105;BME280;75457;53.198;45.008;2024-03-02T01:13:41;101538.84;;;0.97;47.65
85105;BME280;75457;53.198;45.008;2024-03-02T01:16:07;101543.28;;;0.93;47.49
85105;BME280;75457;53.198;45.008;2024-03-02T01:18:32;101542.34;;;0.89;47.74
85105;BME280;75457;53.198;45.008;2024-03-02T01:20:57;101544.41;;;0.92;47.55
85105;BME280;75457;53.198;45.008;2024-03-02T01:23:23;101546.31;;;0.91;47.52
85105;BME280;75457;53.198;45.008;2024-03-02T01:25:49;101548.72;;;0.84;47.27
85105;BME280;75457;53.198;45.008;2024-03-02T01:28:16;101540.94;;;0.74;48.05
85105;BME280;75457;53.198;45.008;2024-03-02T01:30:42;101545.72;;;0.69;47.98
85105;BME280;75457;53.198;45.008;2024-03-02T01:33:07;101548.72;;;0.67;48.19
85105;BME280;75457;53.198;45.008;2024-03-02T01:35:33;101547.28;;;0.78;47.95
85105;BME280;75457;53.198;45.008;2024-03-02T01:37:59;101549.38;;;0.81;47.56
85105;BME280;75457;53.198;45.008;2024-03-02T01:40:24;101544.13;;;0.85;47.88
85105;BME280;75457;53.198;45.008;2024-03-02T01:42:50;101548.56;;;0.72;47.60
85105;BME280;75457;53.198;45.008;2024-03-02T01:45:16;101543.81;;;0.69;48.03
85105;BME280;75457;53.198;45.008;2024-03-02T01:47:42;101552.72;;;0.61;47.90
85105;BME280;75457;53.198;45.008;2024-03-02T01:50:07;101550.34;;;0.51;48.19
85105;BME280;75457;53.198;45.008;2024-03-02T01:52:33;101553.06;;;0.51;48.39
85105;BME280;75457;53.198;45.008;2024-03-02T01:54:58;101551.13;;;0.60;48.00
85105;BME280;75457;53.198;45.008;2024-03-02T01:57:24;101549.06;;;0.57;47.96
85105;BME280;75457;53.198;45.008;2024-03-02T01:59:49;101555.94;;;0.55;48.13
85105;BME280;75457;53.198;45.008;2024-03-02T02:02:16;101551.63;;;0.54;48.11
85105;BME280;75457;53.198;45.008;2024-03-02T02:04:42;101547.81;;;0.63;48.22
85105;BME280;75457;53.198;45.008;2024-03-02T02:07:07;101548.44;;;0.69;47.95
85105;BME280;75457;53.198;45.008;2024-03-02T02:09:33;101547.47;;;0.56;47.87
85105;BME280;75457;53.198;45.008;2024-03-02T02:11:58;101542.38;;;0.55;47.97
85105;BME280;75457;53.198;45.008;2024-03-02T02:14:24;101542.53;;;0.58;47.93
85105;BME280;75457;53.198;45.008;2024-03-02T02:16:49;101535.53;;;0.57;47.71
85105;BME280;75457;53.198;45.008;2024-03-02T02:19:16;101539.97;;;0.62;47.49
85105;BME280;75457;53.198;45.008;2024-03-02T02:21:43;101534.72;;;0.65;47.24
85105;BME280;75457;53.198;45.008;2024-03-02T02:24:09;101529.13;;;0.62;47.39
85105;BME280;75457;53.198;45.008;2024-03-02T02:26:34;101528.81;;;0.63;47.58
85105;BME280;75457;53.198;45.008;2024-03-02T02:29:00;101530.09;;;0.57;47.63
85105;BME280;75457;53.198;45.008;2024-03-02T02:31:25;101525.31;;;0.54;47.28
85105;BME280;75457;53.198;45.008;2024-03-02T02:33:51;101525.97;;;0.51;47.67
85105;BME280;75457;53.198;45.008;2024-03-02T02:36:16;101538.38;;;0.44;47.66
85105;BME280;75457;53.198;45.008;2024-03-02T02:38:45;101528.16;;;0.32;48.04
85105;BME280;75457;53.198;45.008;2024-03-02T02:41:12;101530.09;;;0.40;48.23
85105;BME280;75457;53.198;45.008;2024-03-02T02:43:37;101530.72;;;0.46;47.81
85105;BME280;75457;53.198;45.008;2024-03-02T02:46:03;101528.16;;;0.49;47.92
85105;BME280;75457;53.198;45.008;2024-03-02T02:48:28;101528.81;;;0.46;47.80
85105;BME280;75457;53.198;45.008;2024-03-02T02:50:53;101538.06;;;0.45;47.65
85105;BME280;75457;53.198;45.008;2024-03-02T02:53:19;101545.09;;;0.46;47.43
85105;BME280;75457;53.198;45.008;2024-03-02T02:55:46;101537.41;;;0.48;47.69
85105;BME280;75457;53.198;45.008;2024-03-02T02:58:11;101540.44;;;0.55;47.85
85105;BME280;75457;53.198;45.008;2024-03-02T03:00:37;101548.41;;;0.52;47.83
85105;BME280;75457;53.198;45.008;2024-03-02T03:03:02;101546.34;;;0.40;47.96
85105;BME280;75457;53.198;45.008;2024-03-02T03:05:28;101542.84;;;0.40;48.11
85105;BME280;75457;53.198;45.008;2024-03-02T03:07:53;101550.03;;;0.36;47.97
85105;BME280;75457;53.198;45.008;2024-03-02T03:10:19;101548.25;;;0.40;47.83
85105;BME280;75457;53.198;45.008;2024-03-02T03:12:46;101556.69;;;0.38;47.66
85105;BME280;75457;53.198;45.008;2024-03-02T03:15:11;101545.53;;;0.40;47.66
85105;BME280;75457;53.198;45.008;2024-03-02T03:17:37;101548.56;;;0.47;47.54
85105;BME280;75457;53.198;45.008;2024-03-02T03:20:02;101541.88;;;0.44;47.38
85105;BME280;75457;53.198;45.008;2024-03-02T03:22:28;101547.47;;;0.39;47.29
85105;BME280;75457;53.198;45.008;2024-03-02T03:24:53;101546.81;;;0.34;47.65
85105;BME280;75457;53.198;45.008;2024-03-02T03:27:19;101552.91;;;0.39;47.34
85105;BME280;75457;53.198;45.008;2024-03-02T03:29:46;101549.06;;;0.49;47.16
85105;BME280;75457;53.198;45.008;2024-03-02T03:32:11;101549.38;;;0.56;47.22
85105;BME280;75457;53.198;45.008;2024-03-02T03:34:37;101557.38;;;0.52;46.99
85105;BME280;75457;53.198;45.008;2024-03-02T03:37:02;101554.66;;;0.52;47.08
85105;BME280;75457;53.198;45.008;2024-03-02T03:39:28;101546.22;;;0.54;46.95
85105;BME280;75457;53.198;45.008;2024-03-02T03:41:53;101551.78;;;0.57;47.05
85105;BME280;75457;53.198;45.008;2024-03-02T03:44:19;101556.56;;;0.52;47.16
85105;BME280;75457;53.198;45.008;2024-03-02T03:46:46;101564.53;;;0.48;47.02
85105;BME280;75457;53.198;45.008;2024-03-02T03:49:11;101556.88;;;0.50;46.99
85105;BME280;75457;53.198;45.008;2024-03-02T03:51:37;101568.06;;;0.57;47.04
85105;BME280;75457;53.198;45.008;2024-03-02T03:54:02;101567.88;;;0.62;46.73
85105;BME280;75457;53.198;45.008;2024-03-02T03:56:28;101566.63;;;0.60;46.94
85105;BME280;75457;53.198;45.008;2024-03-02T03:58:53;101562.63;;;0.57;46.63
85105;BME280;75457;53.198;45.008;2024-03-02T04:01:19;101560.38;;;0.51;46.89
85105;BME280;75457;53.198;45.008;2024-03-02T04:03:45;101564.53;;;0.48;47.02
85105;BME280;75457;53.198;45.008;2024-03-02T04:06:11;101570.59;;;0.54;47.00
85105;BME280;75457;53.198;45.008;2024-03-02T04:08:36;101567.72;;;0.59;46.76
85105;BME280;75457;53.198;45.008;2024-03-02T04:11:02;101560.22;;;0.64;46.61
85105;BME280;75457;53.198;45.008;2024-03-02T04:13:27;101565.81;;;0.59;46.82
85105;BME280;75457;53.198;45.008;2024-03-02T04:15:53;101563.09;;;0.51;46.95
85105;BME280;75457;53.198;45.008;2024-03-02T04:18:18;101571.53;;;0.49;47.21
85105;BME280;75457;53.198;45.008;2024-03-02T04:20:45;101572.81;;;0.43;47.28
85105;BME280;75457;53.198;45.008;2024-03-02T04:23:10;101567.38;;;0.43;47.15
85105;BME280;75457;53.198;45.008;2024-03-02T04:25:36;101569.94;;;0.48;47.09
85105;BME280;75457;53.198;45.008;2024-03-02T04:28:01;101579.06;;;0.61;47.22
85105;BME280;75457;53.198;45.008;2024-03-02T04:30:26;101576.97;;;0.66;47.07
85105;BME280;75457;53.198;45.008;2024-03-02T04:32:52;101581.13;;;0.72;46.88
85105;BME280;75457;53.198;45.008;2024-03-02T04:35:17;101573.63;;;0.78;46.82
85105;BME280;75457;53.198;45.008;2024-03-02T04:37:44;101579.53;;;0.71;46.76
85105;BME280;75457;53.198;45.008;2024-03-02T04:40:11;101581.28;;;0.67;46.96
85105;BME280;75457;53.198;45.008;2024-03-02T04:42:36;101591.81;;;0.69;46.91
85105;BME280;75457;53.198;45.008;2024-03-02T04:45:02;101593.06;;;0.63;47.02
85105;BME280;75457;53.198;45.008;2024-03-02T04:47:28;101592.94;;;0.76;46.71
85105;BME280;75457;53.198;45.008;2024-03-02T04:49:53;101587.97;;;0.87;46.55
85105;BME280;75457;53.198;45.008;2024-03-02T04:52:19;101587.00;;;0.83;46.55
85105;BME280;75457;53.198;45.008;2024-03-02T04:54:45;101589.41;;;0.67;46.78
85105;BME280;75457;53.198;45.008;2024-03-02T04:57:11;101593.22;;;0.66;46.82
85105;BME280;75457;53.198;45.008;2024-03-02T04:59:36;101595.78;;;0.71;47.13
85105;BME280;75457;53.198;45.008;2024-03-02T05:02:02;101600.25;;;0.67;46.95
85105;BME280;75457;53.198;45.008;2024-03-02T05:04:27;101602.34;;;0.79;46.72
85105;BME280;75457;53.198;45.008;2024-03-02T05:06:53;101600.25;;;0.84;46.38
85105;BME280;75457;53.198;45.008;2024-03-02T05:09:18;101599.63;;;0.87;46.79
85105;BME280;75457;53.198;45.008;2024-03-02T05:11:45;101606.66;;;0.88;46.60
85105;BME280;75457;53.198;45.008;2024-03-02T05:14:11;101602.50;;;0.91;46.35
85105;BME280;75457;53.198;45.008;2024-03-02T05:16:36;101602.00;;;0.97;46.23
85105;BME280;75457;53.198;45.008;2024-03-02T05:19:01;101597.22;;;0.94;46.47
85105;BME280;75457;53.198;45.008;2024-03-02T05:21:27;101603.44;;;1.03;46.43
85105;BME280;75457;53.198;45.008;2024-03-02T05:23:52;101598.00;;;0.95;46.79
85105;BME280;75457;53.198;45.008;2024-03-02T05:26:18;101601.69;;;0.90;46.84
85105;BME280;75457;53.198;45.008;2024-03-02T05:28:45;101604.72;;;0.97;46.53
85105;BME280;75457;53.198;45.008;2024-03-02T05:31:10;101607.09;;;0.99;46.62
85105;BME280;75457;53.198;45.008;2024-03-02T05:33:37;101604.84;;;1.09;47.04
85105;BME280;75457;53.198;45.008;2024-03-02T05:36:03;101597.19;;;1.37;46.40
85105;BME280;75457;53.198;45.008;2024-03-02T05:38:29;101602.72;;;1.49;46.42
85105;BME280;75457;53.198;45.008;2024-03-02T05:40:54;101606.22;;;1.49;45.95
85105;BME280;75457;53.198;45.008;2024-03-02T05:43:20;101607.97;;;1.54;46.49
85105;BME280;75457;53.198;45.008;2024-03-02T05:45:47;101609.34;;;1.68;46.68
85105;BME280;75457;53.198;45.008;2024-03-02T05:48:12;101604.59;;;1.65;46.43
85105;BME280;75457;53.198;45.008;2024-03-02T05:50:38;101605.38;;;1.66;47.23
85105;BME280;75457;53.198;45.008;2024-03-02T05:53:03;101599.78;;;1.62;46.93
85105;BME280;75457;53.198;45.008;2024-03-02T05:55:29;101608.56;;;1.76;46.48
85105;BME280;75457;53.198;45.008;2024-03-02T05:57:54;101606.13;;;1.83;45.71
85105;BME280;75457;53.198;45.008;2024-03-02T06:00:20;101607.88;;;1.79;46.54
85105;BME280;75457;53.198;45.008;2024-03-02T06:02:47;101600.53;;;1.80;45.76
85105;BME280;75457;53.198;45.008;2024-03-02T06:05:13;101605.81;;;1.85;45.85
85105;BME280;75457;53.198;45.008;2024-03-02T06:07:38;101610.59;;;1.79;46.85
85105;BME280;75457;53.198;45.008;2024-03-02T06:10:04;101617.34;;;1.73;46.47
85105;BME280;75457;53.198;45.008;2024-03-02T06:12:31;101613.78;;;1.81;46.11
85105;BME280;75457;53.198;45.008;2024-03-02T06:14:56;101617.56;;;1.97;45.64
85105;BME280;75457;53.198;45.008;2024-03-02T06:17:22;101615.69;;;1.89;45.70
85105;BME280;75457;53.198;45.008;2024-03-02T06:19:49;101612.41;;;2.04;46.42
85105;BME280;75457;53.198;45.008;2024-03-02T06:22:14;101619.84;;;2.24;45.98
85105;BME280;75457;53.198;45.008;2024-03-02T06:24:40;101607.72;;;2.42;44.87
85105;BME280;75457;53.198;45.008;2024-03-02T06:27:05;101606.63;;;2.64;45.08
85105;BME280;75457;53.198;45.008;2024-03-02T06:29:32;101613.38;;;2.78;44.93
85105;BME280;75457;53.198;45.008;2024-03-02T06:31:58;101608.00;;;2.90;44.82
85105;BME280;75457;53.198;45.008;2024-03-02T06:34:23;101617.81;;;3.03;44.04
85105;BME280;75457;53.198;45.008;2024-03-02T06:36:50;101620.78;;;3.10;44.54
85105;BME280;75457;53.198;45.008;2024-03-02T06:39:16;101621.00;;;3.05;44.70
85105;BME280;75457;53.198;45.008;2024-03-02T06:41:41;101619.78;;;3.15;43.49
85105;BME280;75457;53.198;45.008;2024-03-02T06:44:07;101621.34;;;3.04;44.68
85105;BME280;75457;53.198;45.008;2024-03-02T06:46:32;101629.16;;;3.05;44.50
85105;BME280;75457;53.198;45.008;2024-03-02T06:48:58;101622.50;;;3.15;43.68
85105;BME280;75457;53.198;45.008;2024-03-02T06:51:24;101619.72;;;3.23;43.31
85105;BME280;75457;53.198;45.008;2024-03-02T06:53:51;101622.50;;;3.15;44.35
85105;BME280;75457;53.198;45.008;2024-03-02T06:56:16;101629.56;;;3.16;43.56
85105;BME280;75457;53.198;45.008;2024-03-02T06:58:42;101622.91;;;3.25;43.44
85105;BME280;75457;53.198;45.008;2024-03-02T07:01:07;101620.25;;;3.49;43.47
85105;BME280;75457;53.198;45.008;2024-03-02T07:03:33;101627.91;;;3.68;43.88
85105;BME280;75457;53.198;45.008;2024-03-02T07:05:58;101628.94;;;3.75;43.80
85105;BME280;75457;53.198;45.008;2024-03-02T07:08:24;101625.31;;;3.83;43.40
85105;BME280;75457;53.198;45.008;2024-03-02T07:10:52;101628.28;;;3.78;43.41
85105;BME280;75457;53.198;45.008;2024-03-02T07:13:17;101631.88;;;3.70;42.91
85105;BME280;75457;53.198;45.008;2024-03-02T07:15:43;101626.66;;;3.77;43.26
85105;BME280;75457;53.198;45.008;2024-03-02T07:18:09;101630.09;;;3.86;43.59
85105;BME280;75457;53.198;45.008;2024-03-02T07:20:34;101631.03;;;4.02;42.20
85105;BME280;75457;53.198;45.008;2024-03-02T07:23:00;101633.50;;;4.19;42.83
85105;BME280;75457;53.198;45.008;2024-03-02T07:25:25;101633.50;;;4.19;42.13
85105;BME280;75457;53.198;45.008;2024-03-02T07:27:52;101639.44;;;4.33;42.32
85105;BME280;75457;53.198;45.008;2024-03-02T07:30:18;101630.78;;;4.55;42.00
85105;BME280;75457;53.198;45.008;2024-03-02T07:32:43;101633.69;;;4.86;42.01
85105;BME280;75457;53.198;45.008;2024-03-02T07:35:09;101632.16;;;5.01;41.43
85105;BME280;75457;53.198;45.008;2024-03-02T07:37:34;101636.59;;;5.05;41.46
85105;BME280;75457;53.198;45.008;2024-03-02T07:40:00;101634.91;;;5.28;41.39
85105;BME280;75457;53.198;45.008;2024-03-02T07:42:26;101630.47;;;5.51;41.13
85105;BME280;75457;53.198;45.008;2024-03-02T07:44:53;101626.13;;;5.50;41.08
85105;BME280;75457;53.198;45.008;2024-03-02T07:47:18;101624.72;;;5.56;40.96
85105;BME280;75457;53.198;45.008;2024-03-02T07:49:44;101632.25;;;5.59;40.98
85105;BME280;75457;53.198;45.008;2024-03-02T07:52:10;101625.47;;;5.69;40.81
85105;BME280;75457;53.198;45.008;2024-03-02T07:54:35;101629.53;;;5.75;40.61
85105;BME280;75457;53.198;45.008;2024-03-02T07:57:01;101627.09;;;5.85;40.38
85105;BME280;75457;53.198;45.008;2024-03-02T07:59:26;101619.00;;;6.04;40.09
85105;BME280;75457;53.198;45.008;2024-03-02T08:01:53;101621.19;;;6.14;40.31
85105;BME280;75457;53.198;45.008;2024-03-02T08:04:19;101624.47;;;6.04;40.15
85105;BME280;75457;53.198;45.008;2024-03-02T08:06:45;101624.19;;;6.09;40.37
85105;BME280;75457;53.198;45.008;2024-03-02T08:09:10;101619.22;;;6.30;40.39
85105;BME280;75457;53.198;45.008;2024-03-02T08:11:36;101621.13;;;6.45;40.30
85105;BME280;75457;53.198;45.008;2024-03-02T08:14:01;101619.31;;;6.68;39.70
85105;BME280;75457;53.198;45.008;2024-03-02T08:16:27;101622.38;;;6.82;39.54
85105;BME280;75457;53.198;45.008;2024-03-02T08:18:54;101616.25;;;6.89;38.91
85105;BME280;75457;53.198;45.008;2024-03-02T08:21:20;101609.78;;;6.97;38.53
85105;BME280;75457;53.198;45.008;2024-03-02T08:23:45;101613.75;;;7.18;38.60
85105;BME280;75457;53.198;45.008;2024-03-02T08:26:11;101613.22;;;7.13;39.12
85105;BME280;75457;53.198;45.008;2024-03-02T08:28:37;101609.31;;;7.14;38.79
85105;BME280;75457;53.198;45.008;2024-03-02T08:31:03;101612.22;;;7.02;38.25
85105;BME280;75457;53.198;45.008;2024-03-02T08:33:28;101606.81;;;6.86;38.94
85105;BME280;75457;53.198;45.008;2024-03-02T08:35:56;101613.44;;;7.04;38.97
85105;BME280;75457;53.198;45.008;2024-03-02T08:38:21;101614.75;;;7.10;38.81
85105;BME280;75457;53.198;45.008;2024-03-02T08:40:47;101612.22;;;7.02;38.55
85105;BME280;75457;53.198;45.008;2024-03-02T08:43:13;101614.88;;;6.98;38.72
85105;BME280;75457;53.198;45.008;2024-03-02T08:45:39;101611.56;;;7.08;39.08
85105;BME280;75457;53.198;45.008;2024-03-02T08:48:06;101603.06;;;7.13;37.81
85105;BME280;75457;53.198;45.008;2024-03-02T08:50:32;101602.28;;;7.13;38.11
85105;BME280;75457;53.198;45.008;2024-03-02T08:52:59;101612.59;;;7.19;37.76
85105;BME280;75457;53.198;45.008;2024-03-02T08:55:24;101601.13;;;7.33;37.86
85105;BME280;75457;53.198;45.008;2024-03-02T08:57:50;101606.66;;;7.36;37.52
85105;BME280;75457;53.198;45.008;2024-03-02T09:00:16;101610.88;;;7.53;38.19
85105;BME280;75457;53.198;45.008;2024-03-02T09:02:42;101602.50;;;7.65;37.43
85105;BME280;75457;53.198;45.008;2024-03-02T09:05:08;101600.22;;;7.70;37.18
85105;BME280;75457;53.198;45.008;2024-03-02T09:07:34;101603.47;;;7.98;37.46
85105;BME280;75457;53.198;45.008;2024-03-02T09:10:01;101595.94;;;7.92;37.10
85105;BME280;75457;53.198;45.008;2024-03-02T09:12:26;101598.28;;;7.93;37.21
85105;BME280;75457;53.198;45.008;2024-03-02T09:14:52;101596.59;;;7.85;37.28
85105;BME280;75457;53.198;45.008;2024-03-02T09:17:17;101595.72;;;7.81;36.32
85105;BME280;75457;53.198;45.008;2024-03-02T09:19:43;101600.22;;;7.70;36.65
85105;BME280;75457;53.198;45.008;2024-03-02T09:22:09;101594.56;;;7.82;37.14
85105;BME280;75457;53.198;45.008;2024-03-02T09:24:34;101591.91;;;7.86;36.73
85105;BME280;75457;53.198;45.008;2024-03-02T09:27:01;101593.06;;;8.07;35.79
85105;BME280;75457;53.198;45.008;2024-03-02T09:29:27;101588.44;;;8.14;36.11
85105;BME280;75457;53.198;45.008;2024-03-02T09:31:52;101590.41;;;8.37;35.39
85105;BME280;75457;53.198;45.008;2024-03-02T09:34:18;101589.94;;;8.31;36.43
85105;BME280;75457;53.198;45.008;2024-03-02T09:36:43;101592.69;;;8.31;35.95
85105;BME280;75457;53.198;45.008;2024-03-02T09:39:09;101585.81;;;8.44;36.60
85105;BME280;75457;53.198;45.008;2024-03-02T09:41:35;101586.84;;;8.62;36.41
85105;BME280;75457;53.198;45.008;2024-03-02T09:44:03;101588.47;;;8.96;35.29
85105;BME280;75457;53.198;45.008;2024-03-02T09:46:32;101581.63;;;9.12;35.10
85105;BME280;75457;53.198;45.008;2024-03-02T09:48:58;101581.13;;;9.07;35.64
85105;BME280;75457;53.198;45.008;2024-03-02T09:51:24;101590.31;;;9.18;34.93
85105;BME280;75457;53.198;45.008;2024-03-02T09:53:50;101588.50;;;9.32;34.98
85105;BME280;75457;53.198;45.008;2024-03-02T09:56:15;101589.13;;;9.52;35.44
85105;BME280;75457;53.198;45.008;2024-03-02T09:58:41;101583.84;;;9.73;35.15
85105;BME280;75457;53.198;45.008;2024-03-02T10:01:08;101588.97;;;9.78;34.58
85105;BME280;75457;53.198;45.008;2024-03-02T10:03:34;101585.75;;;9.69;34.95
85105;BME280;75457;53.198;45.008;2024-03-02T10:06:21;101578.75;;;9.78;34.54
85105;BME280;75457;53.198;45.008;2024-03-02T10:08:46;101574.88;;;9.86;34.24
85105;BME280;75457;53.198;45.008;2024-03-02T10:11:25;101581.66;;;9.96;34.07
85105;BME280;75457;53.198;45.008;2024-03-02T10:13:51;101571.88;;;10.02;34.34
85105;BME280;75457;53.198;45.008;2024-03-02T10:16:18;101572.41;;;10.14;34.08
85105;BME280;75457;53.198;45.008;2024-03-02T10:18:44;101577.50;;;10.12;33.90
85105;BME280;75457;53.198;45.008;2024-03-02T10:21:13;101573.31;;;10.29;33.25
85105;BME280;75457;53.198;45.008;2024-03-02T10:23:39;101581.59;;;10.32;33.56
85105;BME280;75457;53.198;45.008;2024-03-02T10:26:16;101571.22;;;10.12;33.50
85105;BME280;75457;53.198;45.008;2024-03-02T10:28:46;101569.59;;;10.07;33.60
85105;BME280;75457;53.198;45.008;2024-03-02T10:31:11;101575.69;;;10.30;33.90
85105;BME280;75457;53.198;45.008;2024-03-02T10:33:39;101573.81;;;10.48;33.50
85105;BME280;75457;53.198;45.008;2024-03-02T10:36:05;101572.34;;;10.65;33.13
85105;BME280;75457;53.198;45.008;2024-03-02T10:38:31;101580.25;;;10.70;33.15
85105;BME280;75457;53.198;45.008;2024-03-02T10:40:58;101572.47;;;10.89;33.40
85105;BME280;75457;53.198;45.008;2024-03-02T10:43:23;101570.94;;;11.02;32.78
85105;BME280;75457;53.198;45.008;2024-03-02T10:45:49;101576.84;;;10.97;32.79
85105;BME280;75457;53.198;45.008;2024-03-02T10:48:15;101572.56;;;11.14;32.28
85105;BME280;75457;53.198;45.008;2024-03-02T10:50:42;101577.00;;;11.57;32.14
85105;BME280;75457;53.198;45.008;2024-03-02T10:53:07;101575.88;;;11.93;32.26
85105;BME280;75457;53.198;45.008;2024-03-02T10:55:33;101568.38;;;12.32;31.22
85105;BME280;75457;53.198;45.008;2024-03-02T10:58:00;101566.75;;;12.52;30.87
85105;BME280;75457;53.198;45.008;2024-03-02T11:00:27;101567.81;;;12.93;30.40
85105;BME280;75457;53.198;45.008;2024-03-02T11:03:03;101575.19;;;13.31;30.36
85105;BME280;75457;53.198;45.008;2024-03-02T11:05:31;101578.03;;;13.78;30.97
85105;BME280;75457;53.198;45.008;2024-03-02T11:08:01;101576.47;;;14.25;29.75
85105;BME280;75457;53.198;45.008;2024-03-02T11:10:30;101576.81;;;14.34;28.87
85105;BME280;75457;53.198;45.008;2024-03-02T11:13:02;101575.00;;;14.54;28.91
85105;BME280;75457;53.198;45.008;2024-03-02T11:15:28;101570.50;;;14.67;28.58
85105;BME280;75457;53.198;45.008;2024-03-02T11:17:55;101571.72;;;14.99;27.97
85105;BME280;75457;53.198;45.008;2024-03-02T11:20:22;101562.25;;;15.57;27.42
85105;BME280;75457;53.198;45.008;2024-03-02T11:22:48;101564.38;;;15.99;27.25
85105;BME280;75457;53.198;45.008;2024-03-02T11:25:24;101562.03;;;16.43;26.97
85105;BME280;75457;53.198;45.008;2024-03-02T11:28:00;101569.34;;;16.96;26.09
85105;BME280;75457;53.198;45.008;2024-03-02T11:30:51;101569.16;;;17.22;25.93
85105;BME280;75457;53.198;45.008;2024-03-02T11:33:23;101575.03;;;17.63;25.69
85105;BME280;75457;53.198;45.008;2024-03-02T11:35:49;101565.13;;;17.78;25.49
85105;BME280;75457;53.198;45.008;2024-03-02T11:38:15;101570.25;;;18.12;25.01
85105;BME280;75457;53.198;45.008;2024-03-02T11:40:42;101573.25;;;18.37;24.50
85105;BME280;75457;53.198;45.008;2024-03-02T11:43:09;101571.19;;;18.82;24.19
85105;BME280;75457;53.198;45.008;2024-03-02T11:45:36;101568.69;;;19.28;23.79
85105;BME280;75457;53.198;45.008;2024-03-02T11:48:05;101565.91;;;19.53;23.25
85105;BME280;75457;53.198;45.008;2024-03-02T11:50:34;101569.38;;;19.82;22.81
85105;BME280;75457;53.198;45.008;2024-03-02T11:53:00;101562.97;;;20.19;22.95
85105;BME280;75457;53.198;45.008;2024-03-02T11:55:26;101568.38;;;20.47;22.57
85105;BME280;75457;53.198;45.008;2024-03-02T11:57:54;101565.72;;;20.65;22.13
85105;BME280;75457;53.198;45.008;2024-03-02T12:00:20;101567.84;;;20.61;22.52
85105;BME280;75457;53.198;45.008;2024-03-02T12:02:45;101560.38;;;20.58;21.88
85105;BME280;75457;53.198;45.008;2024-03-02T12:05:11;101557.38;;;20.53;22.20
85105;BME280;75457;53.198;45.008;2024-03-02T12:07:37;101562.16;;;20.18;21.86
85105;BME280;75457;53.198;45.008;2024-03-02T12:10:03;101569.94;;;19.77;22.21
85105;BME280;75457;53.198;45.008;2024-03-02T12:12:29;101558.41;;;19.38;22.21
85105;BME280;75457;53.198;45.008;2024-03-02T12:14:56;101566.91;;;19.05;22.20
85105;BME280;75457;53.198;45.008;2024-03-02T12:17:22;101564.69;;;18.72;22.43
85105;BME280;75457;53.198;45.008;2024-03-02T12:19:48;101568.16;;;18.48;22.54
85105;BME280;75457;53.198;45.008;2024-03-02T12:22:14;101569.41;;;18.15;22.46
85105;BME280;75457;53.198;45.008;2024-03-02T12:24:41;101559.28;;;18.05;23.10
85105;BME280;75457;53.198;45.008;2024-03-02T12:27:06;101563.91;;;17.95;22.99
85105;BME280;75457;53.198;45.008;2024-03-02T12:29:32;101557.69;;;17.56;23.25
85105;BME280;75457;53.198;45.008;2024-03-02T12:32:00;101570.09;;;17.16;23.63
85105;BME280;75457;53.198;45.008;2024-03-02T12:34:26;101553.28;;;16.84;23.79
85105;BME280;75457;53.198;45.008;2024-03-02T12:36:52;101561.25;;;16.62;24.13
85105;BME280;75457;53.198;45.008;2024-03-02T12:39:18;101557.34;;;16.14;24.67
85105;BME280;75457;53.198;45.008;2024-03-02T12:41:43;101561.22;;;15.70;24.74